Time;durP1;ratioP1;P1;durP2;ratioP2;P2;SDS_P1;SDS_P2;PMS_P1;PMS_P2;Temp;Humidity;BMP_temperature;BMP_pressure;BME280_temperature;BME280_humidity;BME280_pressure;Samples;Min_cycle;Max_cycle;Signal;HPM_P1;HPM_P2
2021/05/23 00:04:28;;;;;;;1.95;0.63;;;;;;;11.18;73.14;99925.38;20884811;28;20037;-72
2021/05/23 00:14:30;;;;;;;2.05;0.60;;;;;;;11.24;73.27;99912.75;20860886;28;20048;-72
2021/05/23 00:24:32;;;;;;;3.30;0.77;;;;;;;11.18;74.56;99914.91;20880456;28;20095;-72
2021/05/23 00:34:33;;;;;;;4.10;0.80;;;;;;;11.14;74.47;99954.41;20880527;28;20558;-72
2021/05/23 00:44:35;;;;;;;2.83;0.80;;;;;;;11.18;74.16;99943.72;20869148;28;20440;-72
2021/05/23 00:54:37;;;;;;;2.40;0.88;;;;;;;11.08;74.08;99952.16;20880165;28;20050;-73
2021/05/23 01:04:40;;;;;;;2.45;0.70;;;;;;;11.04;74.15;99940.22;20874029;28;20049;-73
2021/05/23 01:14:49;;;;;;;4.35;0.70;;;;;;;10.98;73.51;99956.31;20875056;28;20100;-72
2021/05/23 01:25:17;;;;;;;9.52;0.90;;;;;;;11.00;72.67;99964.91;20889220;28;20074;-72
2021/05/23 01:35:23;;;;;;;1.60;0.70;;;;;;;11.06;71.83;99966.31;20884496;28;20048;-72
2021/05/23 01:45:26;;;;;;;3.22;0.73;;;;;;;11.02;71.72;99999.69;20881170;28;20118;-73
2021/05/23 01:55:28;;;;;;;4.10;0.70;;;;;;;10.98;72.51;100003.44;20882837;28;20048;-72
2021/05/23 02:05:32;;;;;;;2.72;0.50;;;;;;;10.93;72.93;100008.13;20902754;28;20041;-76
2021/05/23 02:15:35;;;;;;;5.10;0.60;;;;;;;10.92;73.42;100019.53;20903385;28;20455;-72
2021/05/23 02:25:37;;;;;;;3.47;1.00;;;;;;;10.77;73.21;100012.59;20889815;28;20041;-72
2021/05/23 02:35:41;;;;;;;3.85;1.10;;;;;;;10.66;73.92;100023.75;20888435;28;20501;-70
2021/05/23 02:45:43;;;;;;;3.60;0.60;;;;;;;10.46;74.90;100036.34;20878202;28;20052;-70
2021/05/23 02:55:48;;;;;;;8.10;0.90;;;;;;;10.49;75.13;100041.41;20874270;28;20045;-71
2021/05/23 03:05:50;;;;;;;3.30;0.60;;;;;;;10.41;76.13;100049.72;20894274;28;20056;-73
2021/05/23 03:15:52;;;;;;;1.63;0.50;;;;;;;10.25;77.29;100054.16;20898178;28;20102;-70
2021/05/23 03:25:53;;;;;;;2.25;0.60;;;;;;;10.16;78.03;100067.75;20874247;28;20393;-70
2021/05/23 03:35:55;;;;;;;2.15;0.70;;;;;;;9.97;78.94;100080.16;20867515;28;20088;-70
2021/05/23 03:45:57;;;;;;;3.20;0.80;;;;;;;9.94;79.19;100094.25;20893003;28;20056;-70
2021/05/23 03:55:59;;;;;;;3.45;0.63;;;;;;;9.83;79.97;100110.56;20894478;28;20111;-70
2021/05/23 04:06:00;;;;;;;3.05;0.60;;;;;;;9.96;79.18;100141.22;20888582;28;20094;-71
2021/05/23 04:16:03;;;;;;;3.90;0.55;;;;;;;10.22;78.19;100166.78;20833463;28;20049;-72
2021/05/23 04:26:06;;;;;;;1.48;0.55;;;;;;;10.26;77.80;100174.38;20887551;28;20045;-72
2021/05/23 04:36:07;;;;;;;4.38;0.80;;;;;;;10.34;76.86;100188.81;20885451;28;20040;-71
2021/05/23 04:46:09;;;;;;;4.53;1.08;;;;;;;10.50;75.91;100200.09;20871089;28;20045;-74
2021/05/23 04:56:11;;;;;;;2.67;0.70;;;;;;;10.89;73.48;100217.88;20888934;28;20259;-71
2021/05/23 05:06:13;;;;;;;1.98;0.50;;;;;;;11.10;73.70;100222.72;20885745;28;20044;-72
2021/05/23 05:16:15;;;;;;;5.45;0.60;;;;;;;11.13;72.21;100243.47;20875060;28;20037;-71
2021/05/23 05:26:16;;;;;;;3.25;0.70;;;;;;;10.92;73.26;100246.53;20869936;28;20451;-74
2021/05/23 05:36:19;;;;;;;4.32;0.98;;;;;;;10.86;73.74;100233.78;20888242;28;20095;-71
2021/05/23 05:46:21;;;;;;;3.45;1.15;;;;;;;10.88;73.28;100253.69;20891248;28;20079;-73
2021/05/23 05:56:23;;;;;;;3.05;1.00;;;;;;;11.04;72.88;100275.44;20908855;28;20045;-70
2021/05/23 06:06:25;;;;;;;1.92;0.70;;;;;;;11.31;72.23;100285.25;20896418;28;20051;-70
2021/05/23 06:16:26;;;;;;;3.22;0.88;;;;;;;12.03;68.47;100294.88;20878337;28;20052;-71
2021/05/23 06:26:28;;;;;;;3.80;1.00;;;;;;;12.17;68.55;100300.13;20888463;28;20053;-71
2021/05/23 06:36:30;;;;;;;4.03;0.70;;;;;;;12.26;67.61;100307.41;20900305;28;20048;-70
2021/05/23 06:46:31;;;;;;;4.13;0.82;;;;;;;12.66;66.99;100316.22;20892156;28;20557;-70
2021/05/23 06:56:33;;;;;;;4.55;0.80;;;;;;;12.71;64.57;100320.25;20878967;28;20045;-71
2021/05/23 07:06:36;;;;;;;5.30;0.80;;;;;;;13.04;63.91;100325.09;20890886;28;20040;-72
2021/05/23 07:16:37;;;;;;;5.03;0.90;;;;;;;13.09;63.85;100324.81;20889133;28;20546;-72
2021/05/23 07:26:39;;;;;;;5.20;0.80;;;;;;;13.22;62.70;100330.94;20887065;28;20049;-71
2021/05/23 07:36:41;;;;;;;3.55;0.75;;;;;;;13.63;61.70;100349.22;20879980;28;20049;-71
2021/05/23 07:46:44;;;;;;;7.80;0.98;;;;;;;13.36;61.05;100353.72;20893979;28;20052;-71
2021/05/23 07:56:46;;;;;;;2.55;0.80;;;;;;;13.04;66.69;100356.63;20876445;28;20049;-72
2021/05/23 08:06:49;;;;;;;2.67;0.70;;;;;;;13.85;64.26;100367.88;20889394;28;20053;-72
2021/05/23 08:16:51;;;;;;;3.70;0.50;;;;;;;14.23;60.18;100383.63;20873017;28;20102;-72
2021/05/23 08:26:52;;;;;;;2.45;0.57;;;;;;;14.10;60.21;100391.56;20855968;28;20061;-72
2021/05/23 08:36:54;;;;;;;4.60;0.90;;;;;;;14.09;59.55;100374.06;20882990;28;20049;-73
2021/05/23 08:46:56;;;;;;;3.33;0.63;;;;;;;14.23;59.40;100394.16;20896067;28;20067;-71
2021/05/23 08:56:58;;;;;;;3.47;0.60;;;;;;;14.37;57.68;100393.25;20842502;28;20096;-71
2021/05/23 09:07:04;;;;;;;3.13;0.70;;;;;;;14.65;57.48;100398.25;20878035;28;20111;-71
2021/05/23 09:17:17;;;;;;;2.58;0.70;;;;;;;15.12;54.28;100401.91;20880350;28;20049;-71
2021/05/23 09:27:23;;;;;;;4.28;0.80;;;;;;;15.65;52.34;100395.31;20885605;28;20064;-72
2021/05/23 09:37:25;;;;;;;5.28;1.08;;;;;;;15.51;52.39;100403.38;20867552;28;20110;-71
2021/05/23 09:47:27;;;;;;;4.05;0.60;;;;;;;15.73;50.92;100387.66;20889206;28;20087;-72
2021/05/23 09:57:29;;;;;;;4.68;0.70;;;;;;;14.99;56.94;100415.13;20849871;28;20038;-71
2021/05/23 10:07:34;;;;;;;4.43;0.73;;;;;;;15.16;60.31;100425.31;20881856;28;20095;-72
2021/05/23 10:17:41;;;;;;;6.05;1.10;;;;;;;15.66;54.10;100407.56;20875976;28;20454;-72
2021/05/23 10:27:45;;;;;;;3.53;0.77;;;;;;;15.96;54.02;100422.88;20948949;28;20076;-72
2021/05/23 10:37:49;;;;;;;5.20;0.80;;;;;;;15.70;50.83;100445.94;20938144;28;20052;-72
2021/05/23 10:47:50;;;;;;;3.92;0.90;;;;;;;16.31;49.16;100436.00;20895593;28;20053;-74
2021/05/23 10:57:54;;;;;;;4.60;1.10;;;;;;;16.74;49.12;100437.00;20887026;28;20111;-74
2021/05/23 11:08:01;;;;;;;5.10;0.90;;;;;;;17.10;45.75;100441.16;20886306;28;20045;-74
2021/05/23 11:18:04;;;;;;;5.82;1.08;;;;;;;16.66;46.08;100416.47;20885314;28;20423;-73
2021/05/23 11:28:08;;;;;;;4.75;1.20;;;;;;;17.39;45.35;100407.03;20893726;28;20099;-73
2021/05/23 11:38:10;;;;;;;6.03;1.07;;;;;;;16.18;47.80;100418.47;20880608;28;20045;-73
2021/05/23 11:48:13;;;;;;;3.70;0.82;;;;;;;16.21;50.01;100435.88;20877966;28;20300;-72
2021/05/23 11:58:15;;;;;;;3.63;0.98;;;;;;;13.67;65.44;100463.78;20879373;28;20045;-71
2021/05/23 12:08:19;;;;;;;2.78;0.57;;;;;;;14.58;58.30;100443.59;20868659;28;20037;-73
2021/05/23 12:18:21;;;;;;;3.30;0.50;;;;;;;15.32;54.99;100436.41;20891651;28;20548;-72
2021/05/23 12:28:43;;;;;;;3.08;0.50;;;;;;;16.40;48.78;100436.16;20872991;28;20460;-73
2021/05/23 12:39:07;;;;;;;2.20;0.40;;;;;;;16.83;49.05;100427.50;20876236;28;20095;-72
2021/05/23 12:49:16;;;;;;;2.35;0.50;;;;;;;17.33;41.64;100420.78;20871704;28;20050;-72
2021/05/23 12:59:21;;;;;;;3.42;0.50;;;;;;;16.71;44.70;100421.38;20883977;28;20047;-72
2021/05/23 13:09:29;;;;;;;3.00;0.40;;;;;;;16.19;46.61;100412.25;20877119;28;20567;-73
2021/05/23 13:19:52;;;;;;;3.45;1.10;;;;;;;16.62;47.42;100422.13;20873536;28;20049;-72
2021/05/23 13:29:53;;;;;;;2.15;0.60;;;;;;;16.22;48.04;100413.78;20873290;28;20045;-73
2021/05/23 13:39:55;;;;;;;2.42;0.55;;;;;;;17.19;43.46;100403.38;20894046;28;20530;-72
2021/05/23 13:49:57;;;;;;;2.42;0.47;;;;;;;16.44;45.50;100391.84;20873165;28;20404;-72
2021/05/23 13:59:59;;;;;;;2.05;0.43;;;;;;;17.12;44.60;100388.16;20893717;28;20463;-74
2021/05/23 14:10:01;;;;;;;1.83;0.43;;;;;;;17.35;46.44;100377.34;20896146;28;20122;-74
2021/05/23 14:20:03;;;;;;;1.05;0.30;;;;;;;17.75;43.14;100363.47;20890144;28;20044;-74
2021/05/23 14:30:06;;;;;;;2.17;0.40;;;;;;;17.59;39.85;100360.38;20888934;28;20506;-74
2021/05/23 14:40:10;;;;;;;2.20;0.50;;;;;;;17.52;41.27;100362.72;20897188;28;20040;-74
2021/05/23 14:50:14;;;;;;;3.47;1.23;;;;;;;17.42;43.21;100359.97;20894199;28;20462;-74
2021/05/23 15:00:17;;;;;;;3.13;1.17;;;;;;;17.44;45.86;100360.72;20893440;28;20553;-74
2021/05/23 15:10:18;;;;;;;2.53;0.52;;;;;;;18.67;43.01;100354.56;20876651;28;20195;-75
2021/05/23 15:20:20;;;;;;;2.15;0.60;;;;;;;17.63;43.38;100360.03;20892723;28;20045;-74
2021/05/23 15:30:25;;;;;;;3.55;1.05;;;;;;;17.99;43.57;100352.59;20906439;28;20049;-73
2021/05/23 15:40:28;;;;;;;2.95;0.60;;;;;;;18.28;42.84;100361.53;20898720;28;20041;-72
2021/05/23 15:50:31;;;;;;;3.08;0.75;;;;;;;18.88;42.23;100357.13;20898318;28;20041;-72
2021/05/23 16:00:32;;;;;;;3.38;0.88;;;;;;;18.26;44.89;100352.84;20884283;28;20049;-73
2021/05/23 16:10:36;;;;;;;2.72;0.75;;;;;;;18.18;45.63;100350.06;20914712;28;20037;-72
2021/05/23 16:20:38;;;;;;;2.25;0.50;;;;;;;17.92;46.13;100339.88;20887119;28;20549;-71
2021/05/23 16:30:40;;;;;;;3.33;0.73;;;;;;;16.88;46.77;100336.28;20889078;28;20409;-72
2021/05/23 16:40:42;;;;;;;2.97;0.60;;;;;;;17.24;46.81;100321.00;20892494;28;20402;-72
2021/05/23 16:50:45;;;;;;;2.35;0.70;;;;;;;17.38;46.66;100328.63;20872495;28;20041;-72
2021/05/23 17:00:47;;;;;;;3.53;1.40;;;;;;;18.20;45.70;100316.28;20868812;28;20044;-73
2021/05/23 17:10:49;;;;;;;4.05;0.90;;;;;;;18.54;42.87;100312.38;20887694;28;20052;-72
2021/05/23 17:20:50;;;;;;;4.32;0.98;;;;;;;17.87;45.13;100315.63;20875575;28;20045;-73
2021/05/23 17:30:52;;;;;;;5.25;0.82;;;;;;;17.80;43.85;100308.31;20896613;28;20060;-72
2021/05/23 17:40:56;;;;;;;4.18;1.08;;;;;;;17.78;42.21;100305.78;20885688;28;20095;-72
2021/05/23 17:50:59;;;;;;;4.03;0.80;;;;;;;17.83;41.81;100316.81;20878917;28;20535;-73
2021/05/23 18:01:01;;;;;;;1.88;0.70;;;;;;;17.56;41.51;100305.91;20899773;28;20048;-72
2021/05/23 18:11:04;;;;;;;2.22;0.60;;;;;;;17.30;42.59;100312.56;20898841;28;20091;-72
2021/05/23 18:21:06;;;;;;;5.50;1.58;;;;;;;17.10;44.39;100309.78;20899854;28;20542;-73
2021/05/23 18:31:08;;;;;;;2.60;0.85;;;;;;;16.67;46.31;100317.72;20884509;28;20049;-73
2021/05/23 18:41:10;;;;;;;4.13;1.10;;;;;;;15.94;48.59;100320.03;20887107;28;20052;-73
2021/05/23 18:51:13;;;;;;;3.53;0.98;;;;;;;15.44;50.88;100323.88;20906891;28;20071;-73
2021/05/23 19:01:14;;;;;;;2.95;0.80;;;;;;;14.94;54.70;100325.00;20884197;28;20103;-73
2021/05/23 19:11:16;;;;;;;5.40;1.20;;;;;;;14.52;56.42;100327.19;20890644;28;20091;-72
2021/05/23 19:21:17;;;;;;;3.67;1.13;;;;;;;13.93;57.53;100341.03;20891467;28;20049;-73
2021/05/23 19:31:19;;;;;;;3.47;1.17;;;;;;;13.44;60.87;100341.75;20900640;28;20127;-73
2021/05/23 19:41:21;;;;;;;4.90;1.85;;;;;;;12.98;63.76;100357.03;20882414;28;20052;-73
2021/05/23 19:51:22;;;;;;;4.38;1.30;;;;;;;12.65;64.97;100346.88;20885992;28;20049;-73
2021/05/23 20:01:24;;;;;;;2.83;1.10;;;;;;;12.24;66.63;100354.72;20884123;28;20129;-72
2021/05/23 20:11:26;;;;;;;3.22;1.05;;;;;;;12.05;68.46;100350.72;20881180;28;20041;-72
2021/05/23 20:21:30;;;;;;;2.42;1.00;;;;;;;11.79;70.70;100358.38;20897254;28;20483;-73
2021/05/23 20:31:32;;;;;;;4.25;1.10;;;;;;;11.64;71.88;100361.88;20871387;28;20056;-72
2021/05/23 20:41:34;;;;;;;3.42;1.00;;;;;;;11.45;71.45;100366.50;20892005;28;20409;-72
2021/05/23 20:51:36;;;;;;;3.85;1.20;;;;;;;11.19;73.81;100369.78;20886229;28;20040;-73
2021/05/23 21:01:38;;;;;;;8.07;3.15;;;;;;;11.03;75.41;100351.47;20862969;28;20040;-73
2021/05/23 21:11:41;;;;;;;8.82;2.85;;;;;;;10.85;76.40;100350.75;20896185;28;20049;-73
2021/05/23 21:21:43;;;;;;;6.90;2.50;;;;;;;10.61;78.34;100325.97;20869529;28;20041;-72
2021/05/23 21:31:48;;;;;;;5.80;2.35;;;;;;;10.35;78.82;100324.78;20874781;28;20127;-72
2021/05/23 21:41:50;;;;;;;7.68;3.22;;;;;;;10.13;80.50;100332.88;20868391;28;20098;-73
2021/05/23 21:51:52;;;;;;;6.90;2.63;;;;;;;9.95;80.79;100326.03;20875589;28;20485;-73
2021/05/23 22:01:54;;;;;;;7.20;2.92;;;;;;;9.78;82.43;100320.84;20870556;28;20053;-73
2021/05/23 22:11:56;;;;;;;7.70;2.53;;;;;;;9.53;82.52;100320.41;20852646;28;20045;-73
2021/05/23 22:21:58;;;;;;;5.10;2.47;;;;;;;9.30;83.73;100304.13;20852374;28;20056;-73
2021/05/23 22:32:00;;;;;;;6.80;2.50;;;;;;;8.95;85.17;100289.38;20888902;28;20052;-72
2021/05/23 22:42:02;;;;;;;5.93;2.58;;;;;;;8.85;85.39;100294.19;20879527;28;20107;-74
2021/05/23 22:52:04;;;;;;;7.70;2.90;;;;;;;8.81;86.06;100299.66;20893707;28;20104;-72
2021/05/23 23:02:06;;;;;;;5.47;2.90;;;;;;;8.64;87.79;100286.56;20886642;28;20080;-73
2021/05/23 23:12:08;;;;;;;6.70;3.05;;;;;;;8.55;88.23;100296.53;20899542;28;20049;-72
2021/05/23 23:22:10;;;;;;;7.38;3.10;;;;;;;8.43;88.06;100302.31;20859632;28;20092;-75
2021/05/23 23:32:12;;;;;;;10.23;4.82;;;;;;;8.28;88.78;100284.75;20883807;28;20449;-72
2021/05/23 23:42:15;;;;;;;12.02;3.78;;;;;;;7.99;91.08;100267.84;20896901;28;20107;-74
2021/05/23 23:52:16;;;;;;;10.15;4.82;;;;;;;7.97;92.55;100248.00;20884068;28;20049;-72
